Time;durP1;ratioP1;P1;durP2;ratioP2;P2;SDS_P1;SDS_P2;PMS_P1;PMS_P2;Temp;Humidity;BMP_temperature;BMP_pressure;BME280_temperature;BME280_humidity;BME280_pressure;Samples;Min_cycle;Max_cycle;Signal;HPM_P1;HPM_P2
2020/12/24 00:01:30;;;;;;;27.58;11.93;;;;;;;;;;5111588;28;20371;-15
2020/12/24 00:03:56;;;;;;;26.42;11.68;;;;;;;;;;5112917;28;20024;-18
2020/12/24 00:06:21;;;;;;;30.55;13.23;;;;;;;;;;5112860;28;20107;-19
2020/12/24 00:08:47;;;;;;;32.03;13.63;;;;;;;;;;5111403;28;20060;-19
2020/12/24 00:11:12;;;;;;;26.13;12.65;;;;;;;;;;5112587;28;20054;-18
2020/12/24 00:13:37;;;;;;;34.85;12.25;;;;;;;;;;5112729;28;20027;-19
2020/12/24 00:16:03;;;;;;;25.65;11.18;;;;;;;;;;5112869;28;20035;-18
2020/12/24 00:18:29;;;;;;;26.35;12.60;;;;;;;;;;5112948;28;20042;-18
2020/12/24 00:20:54;;;;;;;23.73;10.95;;;;;;;;;;5112574;28;20470;-18
2020/12/24 00:23:19;;;;;;;22.08;10.35;;;;;;;;;;5111265;28;20579;-19
2020/12/24 00:25:45;;;;;;;21.10;9.20;;;;;;;;;;5112552;28;20036;-18
2020/12/24 00:28:10;;;;;;;26.25;12.35;;;;;;;;;;5111248;28;20016;-18
2020/12/24 00:30:40;;;;;;;27.15;11.77;;;;;;;;;;5112550;28;20439;-19
2020/12/24 00:33:06;;;;;;;22.13;10.95;;;;;;;;;;5112715;28;20046;-19
2020/12/24 00:35:31;;;;;;;21.55;10.60;;;;;;;;;;5112476;28;20495;-18
2020/12/24 00:37:56;;;;;;;21.38;9.73;;;;;;;;;;5112507;28;20019;-18
2020/12/24 00:40:22;;;;;;;20.77;9.70;;;;;;;;;;5112746;28;20027;-19
2020/12/24 00:42:47;;;;;;;25.90;12.20;;;;;;;;;;5112561;28;20030;-18
2020/12/24 00:45:12;;;;;;;26.23;12.27;;;;;;;;;;5112297;28;20028;-19
2020/12/24 00:47:38;;;;;;;25.77;11.63;;;;;;;;;;5111074;28;20018;-18
2020/12/24 00:50:03;;;;;;;26.67;12.02;;;;;;;;;;5111032;28;20485;-19
2020/12/24 00:52:29;;;;;;;29.10;13.30;;;;;;;;;;5112377;28;20378;-18
2020/12/24 00:54:55;;;;;;;26.15;12.35;;;;;;;;;;5113922;28;20028;-18
2020/12/24 00:57:20;;;;;;;29.02;11.43;;;;;;;;;;5116306;28;20019;-20
2020/12/24 00:59:47;;;;;;;32.25;13.05;;;;;;;;;;5114879;28;20481;-18
2020/12/24 01:02:12;;;;;;;29.65;12.93;;;;;;;;;;5114841;28;20027;-18
2020/12/24 01:04:37;;;;;;;28.15;11.52;;;;;;;;;;5116047;28;20061;-18
2020/12/24 01:07:03;;;;;;;26.13;12.48;;;;;;;;;;5116030;28;20495;-18
2020/12/24 01:09:28;;;;;;;26.70;12.35;;;;;;;;;;5114737;28;20076;-19
2020/12/24 01:12:02;;;;;;;24.63;11.50;;;;;;;;;;5115725;28;20039;-19
2020/12/24 01:14:28;;;;;;;24.27;11.80;;;;;;;;;;5115876;28;20027;-19
2020/12/24 01:16:53;;;;;;;22.33;10.77;;;;;;;;;;5115770;28;20062;-18
2020/12/24 01:19:19;;;;;;;23.65;11.18;;;;;;;;;;5114481;28;20035;-17
2020/12/24 01:21:45;;;;;;;20.25;10.25;;;;;;;;;;5114465;28;20020;-19
2020/12/24 01:24:10;;;;;;;25.75;12.05;;;;;;;;;;5115824;28;20027;-17
2020/12/24 01:26:36;;;;;;;30.98;12.60;;;;;;;;;;5114733;28;20106;-18
2020/12/24 01:29:01;;;;;;;28.25;12.32;;;;;;;;;;5115544;28;20072;-19
2020/12/24 01:31:26;;;;;;;29.27;11.77;;;;;;;;;;5115459;28;20020;-18
2020/12/24 01:33:52;;;;;;;29.17;12.35;;;;;;;;;;5115501;28;20035;-19
2020/12/24 01:36:21;;;;;;;23.77;11.70;;;;;;;;;;5115278;28;20015;-18
2020/12/24 01:38:47;;;;;;;23.67;12.18;;;;;;;;;;5115476;28;20020;-18
2020/12/24 01:41:12;;;;;;;30.05;14.27;;;;;;;;;;5115364;28;20016;-20
2020/12/24 01:43:37;;;;;;;26.88;11.90;;;;;;;;;;5115263;28;20386;-20
2020/12/24 01:46:03;;;;;;;24.75;11.38;;;;;;;;;;5115146;28;20016;-18
2020/12/24 01:48:28;;;;;;;30.00;14.30;;;;;;;;;;5115196;28;20054;-19
2020/12/24 01:50:54;;;;;;;26.73;11.73;;;;;;;;;;5113627;28;20046;-18
2020/12/24 01:53:20;;;;;;;26.88;11.18;;;;;;;;;;5113930;28;20100;-18
2020/12/24 01:55:47;;;;;;;26.65;9.93;;;;;;;;;;5115241;28;20012;-18
2020/12/24 01:58:13;;;;;;;30.45;12.60;;;;;;;;;;5114940;28;20474;-18
2020/12/24 02:00:38;;;;;;;18.10;8.38;;;;;;;;;;5115265;28;20022;-17
2020/12/24 02:03:03;;;;;;;20.45;10.38;;;;;;;;;;5114970;28;20074;-18
2020/12/24 02:05:29;;;;;;;23.35;10.63;;;;;;;;;;5114342;28;20026;-19
2020/12/24 02:07:54;;;;;;;24.00;10.93;;;;;;;;;;5114783;28;20020;-19
2020/12/24 02:10:20;;;;;;;25.90;12.50;;;;;;;;;;5114812;28;20028;-18
2020/12/24 02:12:45;;;;;;;25.90;12.52;;;;;;;;;;5114658;28;20047;-19
2020/12/24 02:15:10;;;;;;;25.77;11.50;;;;;;;;;;5114504;28;20020;-18
2020/12/24 02:17:36;;;;;;;24.20;9.95;;;;;;;;;;5114671;28;20080;-17
2020/12/24 02:20:02;;;;;;;29.88;12.68;;;;;;;;;;5114387;28;20016;-18
2020/12/24 02:22:27;;;;;;;28.73;13.02;;;;;;;;;;5114583;28;20112;-19
2020/12/24 02:24:52;;;;;;;23.73;12.23;;;;;;;;;;5114512;28;20027;-18
2020/12/24 02:27:18;;;;;;;23.75;11.50;;;;;;;;;;5114551;28;20084;-19
2020/12/24 02:29:43;;;;;;;25.48;10.65;;;;;;;;;;5113215;28;20015;-19
2020/12/24 02:32:08;;;;;;;22.25;10.10;;;;;;;;;;5112887;28;20116;-18
2020/12/24 02:34:34;;;;;;;23.50;10.07;;;;;;;;;;5114522;28;20016;-19
2020/12/24 02:36:59;;;;;;;19.48;9.50;;;;;;;;;;5114266;28;20492;-18
2020/12/24 02:39:25;;;;;;;21.65;8.77;;;;;;;;;;5114286;28;20415;-17
2020/12/24 02:41:50;;;;;;;19.70;7.82;;;;;;;;;;5114079;28;20032;-19
2020/12/24 02:44:16;;;;;;;16.20;7.13;;;;;;;;;;5114033;28;20016;-19
2020/12/24 02:46:41;;;;;;;22.60;8.73;;;;;;;;;;5114065;28;20143;-18
2020/12/24 02:49:07;;;;;;;24.73;10.50;;;;;;;;;;5113976;28;20453;-19
2020/12/24 02:51:32;;;;;;;16.90;7.80;;;;;;;;;;5113877;28;20521;-20
2020/12/24 02:53:57;;;;;;;20.13;7.95;;;;;;;;;;5113868;28;20478;-19
2020/12/24 02:56:23;;;;;;;18.23;7.40;;;;;;;;;;5113867;28;20394;-19
2020/12/24 02:58:48;;;;;;;15.77;7.75;;;;;;;;;;5113857;28;20023;-19
2020/12/24 03:01:13;;;;;;;16.25;7.78;;;;;;;;;;5113825;28;20026;-19
2020/12/24 03:03:39;;;;;;;12.25;5.68;;;;;;;;;;5113742;28;20470;-18
2020/12/24 03:06:04;;;;;;;9.10;4.57;;;;;;;;;;5113640;28;20098;-19
2020/12/24 03:08:29;;;;;;;12.10;5.82;;;;;;;;;;5113984;28;20024;-19
2020/12/24 03:10:55;;;;;;;12.15;6.25;;;;;;;;;;5113645;28;20051;-18
2020/12/24 03:13:20;;;;;;;10.45;5.63;;;;;;;;;;5114136;28;20031;-18
2020/12/24 03:15:46;;;;;;;14.70;6.13;;;;;;;;;;5113425;28;20031;-18
2020/12/24 03:18:11;;;;;;;9.50;4.68;;;;;;;;;;5112677;28;20015;-16
2020/12/24 03:20:36;;;;;;;11.75;5.60;;;;;;;;;;5113784;28;20429;-18
2020/12/24 03:23:02;;;;;;;12.02;5.20;;;;;;;;;;5112026;28;20027;-18
2020/12/24 03:25:27;;;;;;;10.00;5.25;;;;;;;;;;5112046;28;20023;-19
2020/12/24 03:27:53;;;;;;;11.40;4.82;;;;;;;;;;5112074;28;20019;-18
2020/12/24 03:30:18;;;;;;;10.60;5.20;;;;;;;;;;5113460;28;20023;-17
2020/12/24 03:32:44;;;;;;;9.02;4.90;;;;;;;;;;5113152;28;20035;-18
2020/12/24 03:35:09;;;;;;;7.82;4.13;;;;;;;;;;5111811;28;20032;-18
2020/12/24 03:37:34;;;;;;;9.77;5.70;;;;;;;;;;5111808;28;20016;-18
2020/12/24 03:40:00;;;;;;;9.77;5.30;;;;;;;;;;5113108;28;20068;-20
2020/12/24 03:42:25;;;;;;;8.50;5.22;;;;;;;;;;5113421;28;20447;-19
2020/12/24 03:44:51;;;;;;;7.28;4.80;;;;;;;;;;5111700;28;20028;-19
2020/12/24 03:47:16;;;;;;;10.43;4.80;;;;;;;;;;5111614;28;20374;-17
2020/12/24 03:49:41;;;;;;;8.50;4.10;;;;;;;;;;5112921;28;20024;-18
2020/12/24 03:52:07;;;;;;;6.47;4.20;;;;;;;;;;5112752;28;20084;-18
2020/12/24 03:54:32;;;;;;;7.28;4.60;;;;;;;;;;5112857;28;20027;-18
2020/12/24 03:56:57;;;;;;;5.88;3.83;;;;;;;;;;5111902;28;20027;-18
2020/12/24 03:59:23;;;;;;;6.78;3.25;;;;;;;;;;5112930;28;20623;-18
2020/12/24 04:01:48;;;;;;;8.50;4.40;;;;;;;;;;5113120;28;20015;-18
2020/12/24 04:04:14;;;;;;;6.10;3.08;;;;;;;;;;5111507;28;20118;-19
2020/12/24 04:06:39;;;;;;;5.80;3.63;;;;;;;;;;5113009;28;20136;-18
2020/12/24 04:09:04;;;;;;;4.95;3.03;;;;;;;;;;5111431;28;20020;-19
2020/12/24 04:11:30;;;;;;;7.22;3.67;;;;;;;;;;5112924;28;20378;-18
2020/12/24 04:13:55;;;;;;;7.65;4.05;;;;;;;;;;5111554;28;20072;-18
2020/12/24 04:16:21;;;;;;;7.22;3.53;;;;;;;;;;5112738;28;20016;-18
2020/12/24 04:18:47;;;;;;;5.78;3.40;;;;;;;;;;5111337;28;20027;-18
2020/12/24 04:21:12;;;;;;;5.50;3.13;;;;;;;;;;5112619;28;20012;-19
2020/12/24 04:23:38;;;;;;;11.38;3.80;;;;;;;;;;5112940;28;20435;-18
2020/12/24 04:26:03;;;;;;;5.60;4.28;;;;;;;;;;5112559;28;20031;-18
2020/12/24 04:28:29;;;;;;;5.97;3.55;;;;;;;;;;5111989;28;20035;-19
2020/12/24 04:30:54;;;;;;;5.28;3.90;;;;;;;;;;5116620;28;20367;-17
2020/12/24 04:33:19;;;;;;;5.05;3.55;;;;;;;;;;5115277;28;20035;-18
2020/12/24 04:35:45;;;;;;;6.60;3.25;;;;;;;;;;5115219;28;20026;-19
2020/12/24 04:38:10;;;;;;;6.75;3.10;;;;;;;;;;5115329;28;20031;-18
2020/12/24 04:40:35;;;;;;;4.65;2.95;;;;;;;;;;5116918;28;20464;-18
2020/12/24 04:43:02;;;;;;;4.88;2.85;;;;;;;;;;5116612;28;20020;-18
2020/12/24 04:45:27;;;;;;;5.03;3.28;;;;;;;;;;5116444;27;20051;-18
2020/12/24 04:47:57;;;;;;;4.85;3.58;;;;;;;;;;5116415;28;20086;-18
2020/12/24 04:50:26;;;;;;;5.53;3.30;;;;;;;;;;5097932;28;20075;-19
2020/12/24 04:52:52;;;;;;;4.65;2.92;;;;;;;;;;5116204;28;20454;-18
2020/12/24 04:55:17;;;;;;;7.30;2.72;;;;;;;;;;5114872;28;20111;-19
2020/12/24 04:57:43;;;;;;;4.32;3.05;;;;;;;;;;5116178;28;20367;-19
2020/12/24 05:00:09;;;;;;;5.15;3.67;;;;;;;;;;5114869;28;20019;-18
2020/12/24 05:02:34;;;;;;;6.90;3.10;;;;;;;;;;5114868;28;20040;-18
2020/12/24 05:05:02;;;;;;;3.88;2.70;;;;;;;;;;5114649;28;20022;-19
2020/12/24 05:07:27;;;;;;;4.97;3.33;;;;;;;;;;5116131;28;20031;-18
2020/12/24 05:09:54;;;;;;;4.40;2.72;;;;;;;;;;5115913;28;20028;-18
2020/12/24 05:12:25;;;;;;;3.83;2.83;;;;;;;;;;5115830;28;20043;-18
2020/12/24 05:14:51;;;;;;;5.13;2.80;;;;;;;;;;5116176;28;20024;-18
2020/12/24 05:17:16;;;;;;;5.13;3.22;;;;;;;;;;5115721;28;20180;-17
2020/12/24 05:19:48;;;;;;;6.35;3.42;;;;;;;;;;5115821;28;20020;-18
2020/12/24 05:22:20;;;;;;;6.43;3.50;;;;;;;;;;5115673;28;20492;-18
2020/12/24 05:24:46;;;;;;;4.63;3.35;;;;;;;;;;5115634;28;20039;-18
2020/12/24 05:27:12;;;;;;;4.22;2.88;;;;;;;;;;5115916;28;20020;-19
2020/12/24 05:29:39;;;;;;;5.85;3.45;;;;;;;;;;5115709;28;20462;-18
2020/12/24 05:32:05;;;;;;;6.60;3.90;;;;;;;;;;5115441;28;20434;-19
2020/12/24 05:34:31;;;;;;;5.97;3.35;;;;;;;;;;5115487;27;20113;-17
2020/12/24 05:37:11;;;;;;;5.65;3.20;;;;;;;;;;5114207;28;20167;-18
2020/12/24 05:39:38;;;;;;;5.18;3.33;;;;;;;;;;5114782;28;20055;-18
2020/12/24 05:42:04;;;;;;;5.57;3.50;;;;;;;;;;5113557;28;20016;-18
2020/12/24 05:44:29;;;;;;;4.18;2.95;;;;;;;;;;5097003;28;20031;-19
2020/12/24 05:46:55;;;;;;;3.75;3.03;;;;;;;;;;5113950;28;20030;-18
2020/12/24 05:49:21;;;;;;;4.65;3.08;;;;;;;;;;5115187;28;20031;-19
2020/12/24 05:51:47;;;;;;;5.47;3.15;;;;;;;;;;5115002;28;20126;-19
2020/12/24 05:54:13;;;;;;;4.15;2.63;;;;;;;;;;5115298;28;20374;-19
2020/12/24 05:56:39;;;;;;;7.07;3.55;;;;;;;;;;5113791;28;20023;-18
2020/12/24 05:59:05;;;;;;;9.68;4.07;;;;;;;;;;5115021;27;20027;-19
2020/12/24 06:01:39;;;;;;;4.78;2.80;;;;;;;;;;5114989;28;20423;-18
2020/12/24 06:04:05;;;;;;;3.55;2.63;;;;;;;;;;5114871;28;20038;-19
2020/12/24 06:06:40;;;;;;;3.58;2.28;;;;;;;;;;5115047;28;20065;-18
2020/12/24 06:09:09;;;;;;;4.25;2.70;;;;;;;;;;5114950;28;20028;-19
2020/12/24 06:11:43;;;;;;;4.15;2.75;;;;;;;;;;5114721;27;20456;-18
2020/12/24 06:14:12;;;;;;;53.40;23.77;;;;;;;;;;5113366;28;20088;-19
2020/12/24 06:16:39;;;;;;;9.38;5.22;;;;;;;;;;5115048;28;20024;-17
2020/12/24 06:19:05;;;;;;;4.93;2.63;;;;;;;;;;5114860;28;20107;-18
2020/12/24 06:21:33;;;;;;;3.92;2.72;;;;;;;;;;5114691;28;20432;-19
2020/12/24 06:23:59;;;;;;;5.55;2.75;;;;;;;;;;5113400;28;20023;-18
2020/12/24 06:26:28;;;;;;;4.65;2.60;;;;;;;;;;5114887;28;20419;-17
2020/12/24 06:28:55;;;;;;;5.50;2.78;;;;;;;;;;5114487;28;20020;-18
2020/12/24 06:31:22;;;;;;;4.95;2.78;;;;;;;;;;5114349;28;20051;-17
2020/12/24 06:33:47;;;;;;;4.85;3.10;;;;;;;;;;5114300;28;20031;-18
2020/12/24 06:36:31;;;;;;;3.15;2.38;;;;;;;;;;5112825;28;20030;-18
2020/12/24 06:38:57;;;;;;;6.38;3.25;;;;;;;;;;5114523;28;20042;-19
2020/12/24 06:41:24;;;;;;;3.65;2.63;;;;;;;;;;5114439;27;20107;-17
2020/12/24 06:43:49;;;;;;;3.35;2.25;;;;;;;;;;5114050;28;20083;-18
2020/12/24 06:46:15;;;;;;;4.38;2.03;;;;;;;;;;5112869;28;20023;-19
2020/12/24 06:48:40;;;;;;;3.33;2.35;;;;;;;;;;5114349;28;20034;-18
2020/12/24 06:51:05;;;;;;;3.45;2.30;;;;;;;;;;5113447;28;20051;-17
2020/12/24 06:53:34;;;;;;;2.75;2.20;;;;;;;;;;5113915;28;20028;-17
2020/12/24 06:56:09;;;;;;;4.13;3.20;;;;;;;;;;5113851;28;20020;-19
2020/12/24 06:58:38;;;;;;;2.90;2.13;;;;;;;;;;5113882;28;20039;-18
2020/12/24 07:01:03;;;;;;;4.22;2.33;;;;;;;;;;5112525;28;20073;-19
2020/12/24 07:03:30;;;;;;;3.80;2.03;;;;;;;;;;5112457;28;20027;-18
2020/12/24 07:05:56;;;;;;;3.40;2.15;;;;;;;;;;5112722;28;20022;-21
2020/12/24 07:08:33;;;;;;;5.03;2.65;;;;;;;;;;5113656;28;20470;-17
2020/12/24 07:11:34;;;;;;;4.85;3.08;;;;;;;;;;5113714;28;20028;-19
2020/12/24 07:14:00;;;;;;;4.65;2.80;;;;;;;;;;5030538;28;20033;-18
2020/12/24 07:16:45;;;;;;;3.88;2.55;;;;;;;;;;5096237;28;20503;-18
2020/12/24 07:19:13;;;;;;;3.53;2.30;;;;;;;;;;5113435;28;20588;-17
2020/12/24 07:21:39;;;;;;;3.83;2.50;;;;;;;;;;5113452;28;20023;-18
2020/12/24 07:24:07;;;;;;;3.33;2.05;;;;;;;;;;5113208;28;20080;-17
2020/12/24 07:26:33;;;;;;;3.05;1.88;;;;;;;;;;5113475;28;20466;-18
2020/12/24 07:28:59;;;;;;;3.90;2.35;;;;;;;;;;5113035;28;20032;-17
2020/12/24 07:31:26;;;;;;;3.05;1.92;;;;;;;;;;5113293;28;20023;-17
2020/12/24 07:33:52;;;;;;;4.90;2.55;;;;;;;;;;5113143;28;20036;-17
2020/12/24 07:36:17;;;;;;;3.28;2.15;;;;;;;;;;5113125;28;20012;-16
2020/12/24 07:38:43;;;;;;;4.18;2.67;;;;;;;;;;5111922;28;20028;-18
2020/12/24 07:41:16;;;;;;;4.50;2.22;;;;;;;;;;5112967;28;20394;-16
2020/12/24 07:43:41;;;;;;;2.85;2.13;;;;;;;;;;5113119;28;20024;-18
2020/12/24 07:46:07;;;;;;;3.03;2.05;;;;;;;;;;5113029;28;20466;-19
2020/12/24 07:48:33;;;;;;;2.65;1.70;;;;;;;;;;5113303;28;20038;-17
2020/12/24 07:51:06;;;;;;;2.78;1.77;;;;;;;;;;5112753;28;20071;-18
2020/12/24 07:53:31;;;;;;;3.92;2.47;;;;;;;;;;5112935;28;20027;-18
2020/12/24 07:56:04;;;;;;;2.85;1.63;;;;;;;;;;5112988;28;20019;-18
2020/12/24 07:58:30;;;;;;;3.08;2.08;;;;;;;;;;5112933;28;20030;-17
2020/12/24 08:00:56;;;;;;;2.53;2.00;;;;;;;;;;5111831;28;20016;-18
2020/12/24 08:03:21;;;;;;;3.40;1.80;;;;;;;;;;5112462;28;20062;-18
2020/12/24 08:05:48;;;;;;;3.05;1.92;;;;;;;;;;5112911;28;20458;-17
2020/12/24 08:08:23;;;;;;;3.55;1.95;;;;;;;;;;5113330;28;20434;-18
2020/12/24 08:10:48;;;;;;;5.25;1.95;;;;;;;;;;5111409;28;20020;-18
2020/12/24 08:13:14;;;;;;;2.33;1.88;;;;;;;;;;5112630;28;20042;-18
2020/12/24 08:15:40;;;;;;;3.22;1.77;;;;;;;;;;5111781;28;20032;-17
2020/12/24 08:18:07;;;;;;;2.45;1.65;;;;;;;;;;5111426;28;20051;-18
2020/12/24 08:20:52;;;;;;;2.75;1.85;;;;;;;;;;5112727;28;20043;-18
2020/12/24 08:23:23;;;;;;;2.75;2.10;;;;;;;;;;5112752;28;20107;-18
2020/12/24 08:25:53;;;;;;;3.03;1.52;;;;;;;;;;5112669;28;20531;-19
2020/12/24 08:28:19;;;;;;;4.57;2.17;;;;;;;;;;5112602;28;20031;-17
2020/12/24 08:30:46;;;;;;;9.05;4.97;;;;;;;;;;5112783;28;20071;-17
2020/12/24 08:33:12;;;;;;;10.00;4.47;;;;;;;;;;5111146;28;20063;-17
2020/12/24 08:35:38;;;;;;;7.22;4.63;;;;;;;;;;5112631;28;20076;-17
2020/12/24 08:38:13;;;;;;;3.28;2.20;;;;;;;;;;5112466;28;20490;-18
2020/12/24 08:40:39;;;;;;;4.07;2.03;;;;;;;;;;5094325;28;20019;-18
2020/12/24 08:43:08;;;;;;;2.92;1.90;;;;;;;;;;5112509;28;20075;-17
2020/12/24 08:45:40;;;;;;;2.28;1.55;;;;;;;;;;5112697;28;20028;-16
2020/12/24 08:48:06;;;;;;;6.53;3.67;;;;;;;;;;5112401;28;20031;-19
2020/12/24 08:50:36;;;;;;;4.38;2.67;;;;;;;;;;5112193;28;20115;-18
2020/12/24 08:53:05;;;;;;;6.70;4.40;;;;;;;;;;5112291;28;20119;-18
2020/12/24 08:55:30;;;;;;;4.07;3.08;;;;;;;;;;5112377;28;20104;-16
2020/12/24 08:57:56;;;;;;;2.53;1.95;;;;;;;;;;5112299;28;20063;-18
2020/12/24 09:00:22;;;;;;;4.75;1.75;;;;;;;;;;5112525;28;20474;-18
2020/12/24 09:02:48;;;;;;;2.00;1.60;;;;;;;;;;5112600;28;20038;-17
2020/12/24 09:05:13;;;;;;;1.75;1.33;;;;;;;;;;5112127;28;20362;-17
2020/12/24 09:07:45;;;;;;;2.38;2.00;;;;;;;;;;4754962;28;9999809;-21
2020/12/24 09:10:11;;;;;;;1.83;1.30;;;;;;;;;;5087111;28;20032;-18
2020/12/24 09:12:38;;;;;;;2.05;1.88;;;;;;;;;;5088506;28;20032;-20
2020/12/24 09:15:15;;;;;;;2.47;1.98;;;;;;;;;;5089862;28;20036;-19
2020/12/24 09:17:48;;;;;;;2.08;1.80;;;;;;;;;;5091139;28;20020;-21
2020/12/24 09:20:14;;;;;;;;;;;;;;;;;;5093094;28;20027;-19
2020/12/24 09:22:50;;;;;;;1.60;1.50;;;;;;;;;;5091856;28;19915;-20
2020/12/24 09:25:32;;;;;;;1.40;1.25;;;;;;;;;;5092042;28;20063;-20
2020/12/24 09:27:58;;;;;;;1.55;1.38;;;;;;;;;;5092067;28;20033;-19
2020/12/24 09:30:23;;;;;;;1.70;1.48;;;;;;;;;;5091940;28;20379;-21
2020/12/24 09:32:59;;;;;;;2.17;1.63;;;;;;;;;;5090540;28;20095;-20
2020/12/24 09:35:25;;;;;;;1.63;1.25;;;;;;;;;;5091100;28;20554;-17
2020/12/24 09:37:51;;;;;;;2.08;1.48;;;;;;;;;;5091666;28;20049;-18
2020/12/24 09:40:17;;;;;;;2.03;1.48;;;;;;;;;;5091352;28;20024;-22
2020/12/24 09:42:42;;;;;;;2.00;1.35;;;;;;;;;;5091377;28;20097;-18
2020/12/24 09:45:08;;;;;;;2.63;1.25;;;;;;;;;;5091462;28;20028;-17
2020/12/24 09:47:34;;;;;;;1.30;0.95;;;;;;;;;;5091470;28;20024;-20
2020/12/24 09:50:00;;;;;;;2.80;1.10;;;;;;;;;;5091608;28;20043;-18
2020/12/24 09:52:25;;;;;;;1.40;0.93;;;;;;;;;;5091652;28;20115;-18
2020/12/24 09:54:51;;;;;;;7.20;1.38;;;;;;;;;;5073118;28;20161;-18
2020/12/24 09:57:16;;;;;;;1.30;1.15;;;;;;;;;;5089624;28;20028;-17
2020/12/24 09:59:42;;;;;;;1.80;0.93;;;;;;;;;;5090757;28;20389;-18
2020/12/24 10:02:07;;;;;;;1.35;1.23;;;;;;;;;;5111746;28;20031;-18
2020/12/24 10:04:32;;;;;;;2.42;1.10;;;;;;;;;;5111807;28;20658;-18
2020/12/24 10:06:58;;;;;;;2.53;1.17;;;;;;;;;;5110224;28;20011;-17
2020/12/24 10:09:23;;;;;;;1.92;1.20;;;;;;;;;;5111246;28;20130;-17
2020/12/24 10:11:49;;;;;;;3.13;1.38;;;;;;;;;;5111664;28;20752;-18
2020/12/24 10:14:15;;;;;;;1.40;1.30;;;;;;;;;;5111555;28;20683;-19
2020/12/24 10:16:40;;;;;;;2.60;1.45;;;;;;;;;;5111315;28;20026;-18
2020/12/24 10:19:06;;;;;;;2.17;1.05;;;;;;;;;;5110272;28;20023;-18
2020/12/24 10:21:32;;;;;;;5.78;2.00;;;;;;;;;;4746019;28;10000192;-18
2020/12/24 10:23:58;;;;;;;1.40;1.23;;;;;;;;;;5090683;28;20032;-20
2020/12/24 10:26:24;;;;;;;3.50;2.78;;;;;;;;;;5090026;28;20024;-20
2020/12/24 10:28:49;;;;;;;3.17;2.33;;;;;;;;;;5090902;28;20024;-29
2020/12/24 10:31:15;;;;;;;1.50;1.40;;;;;;;;;;5090675;28;20016;-20
2020/12/24 10:33:41;;;;;;;4.43;2.25;;;;;;;;;;5090218;28;20032;-21
2020/12/24 10:36:06;;;;;;;4.55;2.47;;;;;;;;;;5090225;28;20016;-20
2020/12/24 10:38:32;;;;;;;5.82;3.25;;;;;;;;;;5090552;28;20024;-20
2020/12/24 10:40:57;;;;;;;8.57;2.90;;;;;;;;;;5101484;28;20019;-20
2020/12/24 10:43:23;;;;;;;4.78;2.80;;;;;;;;;;5109259;28;20486;-19
2020/12/24 10:45:48;;;;;;;4.90;2.28;;;;;;;;;;5110027;28;20028;-19
2020/12/24 10:48:14;;;;;;;1.73;1.10;;;;;;;;;;5110218;28;20076;-20
2020/12/24 10:50:39;;;;;;;2.17;1.60;;;;;;;;;;5109124;28;20048;-20
2020/12/24 10:53:05;;;;;;;3.53;2.30;;;;;;;;;;5109008;28;20074;-23
2020/12/24 10:55:30;;;;;;;3.55;1.17;;;;;;;;;;5108623;28;20080;-21
2020/12/24 10:57:56;;;;;;;1.85;1.30;;;;;;;;;;5109830;28;20602;-19
2020/12/24 11:00:21;;;;;;;4.55;1.10;;;;;;;;;;5110020;28;20090;-20
2020/12/24 11:02:47;;;;;;;3.22;1.15;;;;;;;;;;5109770;28;20198;-20
2020/12/24 11:05:12;;;;;;;2.17;1.48;;;;;;;;;;5109970;28;20011;-20
2020/12/24 11:07:38;;;;;;;2.58;1.95;;;;;;;;;;5110083;28;20036;-20
2020/12/24 11:10:03;;;;;;;2.08;1.35;;;;;;;;;;5108465;28;20019;-20
2020/12/24 11:12:29;;;;;;;1.50;1.20;;;;;;;;;;5110003;28;20032;-19
2020/12/24 11:14:54;;;;;;;5.63;1.50;;;;;;;;;;5110003;28;20032;-20
2020/12/24 11:17:20;;;;;;;1.15;0.77;;;;;;;;;;5108638;28;20055;-18
2020/12/24 11:19:45;;;;;;;2.75;1.10;;;;;;;;;;5110018;28;20018;-18
2020/12/24 11:22:11;;;;;;;1.10;1.00;;;;;;;;;;5092788;28;20647;-18
2020/12/24 11:24:37;;;;;;;1.40;0.95;;;;;;;;;;5089528;28;20027;-19
2020/12/24 11:27:02;;;;;;;1.85;1.35;;;;;;;;;;5089407;28;20039;-18
2020/12/24 11:29:28;;;;;;;1.45;1.17;;;;;;;;;;5089722;28;20146;-17
2020/12/24 11:31:54;;;;;;;1.35;0.95;;;;;;;;;;5089190;28;20093;-18
2020/12/24 11:34:19;;;;;;;1.27;1.05;;;;;;;;;;5102360;28;20370;-18
2020/12/24 11:36:45;;;;;;;1.50;0.88;;;;;;;;;;5109485;28;20118;-18
2020/12/24 11:39:11;;;;;;;1.70;1.20;;;;;;;;;;5107271;28;20008;-18
2020/12/24 11:41:37;;;;;;;2.35;0.90;;;;;;;;;;5109329;28;20032;-18
2020/12/24 11:44:02;;;;;;;5.10;2.50;;;;;;;;;;5109152;28;20051;-19
2020/12/24 11:46:28;;;;;;;5.75;3.72;;;;;;;;;;5107787;28;20063;-19
2020/12/24 11:48:54;;;;;;;5.35;3.17;;;;;;;;;;5107891;28;20076;-19
2020/12/24 11:51:20;;;;;;;3.00;1.75;;;;;;;;;;5109250;28;20054;-19
2020/12/24 11:53:47;;;;;;;3.17;2.28;;;;;;;;;;5109506;28;20432;-19
2020/12/24 11:56:16;;;;;;;3.63;2.08;;;;;;;;;;5108996;28;20023;-19
2020/12/24 11:58:42;;;;;;;2.80;1.85;;;;;;;;;;5107850;28;20450;-18
2020/12/24 12:01:08;;;;;;;3.00;2.00;;;;;;;;;;5109411;28;20102;-19
2020/12/24 12:03:33;;;;;;;4.93;2.22;;;;;;;;;;5109372;28;20454;-18
2020/12/24 12:05:59;;;;;;;5.15;2.63;;;;;;;;;;5109189;28;20110;-17
2020/12/24 12:08:24;;;;;;;3.72;2.08;;;;;;;;;;5108750;28;20027;-18
2020/12/24 12:10:50;;;;;;;3.45;2.15;;;;;;;;;;5109027;28;20069;-18
2020/12/24 12:13:15;;;;;;;10.90;3.35;;;;;;;;;;5108861;28;20032;-19
2020/12/24 12:15:41;;;;;;;6.60;3.50;;;;;;;;;;5109253;28;20028;-19
2020/12/24 12:18:07;;;;;;;12.40;4.53;;;;;;;;;;5108968;28;20560;-17
2020/12/24 12:20:33;;;;;;;13.45;4.20;;;;;;;;;;5108855;28;20039;-18
2020/12/24 12:22:58;;;;;;;8.63;4.30;;;;;;;;;;5089225;28;20051;-18
2020/12/24 12:25:23;;;;;;;8.70;4.97;;;;;;;;;;5088426;28;20077;-17
2020/12/24 12:27:49;;;;;;;8.70;4.32;;;;;;;;;;5088401;28;20025;-18
2020/12/24 12:30:14;;;;;;;13.45;5.68;;;;;;;;;;5088441;28;20059;-19
2020/12/24 12:32:40;;;;;;;9.32;4.88;;;;;;;;;;5086875;28;20085;-18
2020/12/24 12:35:06;;;;;;;11.32;4.45;;;;;;;;;;5088810;28;20063;-17
2020/12/24 12:37:35;;;;;;;8.95;3.72;;;;;;;;;;5087601;28;20028;-18
2020/12/24 12:40:02;;;;;;;5.72;3.08;;;;;;;;;;5089080;28;20020;-18
2020/12/24 12:42:27;;;;;;;7.40;3.53;;;;;;;;;;5089056;28;20039;-19
2020/12/24 12:44:53;;;;;;;7.68;4.10;;;;;;;;;;5088481;28;20038;-18
2020/12/24 12:47:18;;;;;;;5.38;2.55;;;;;;;;;;5089018;28;20023;-19
2020/12/24 12:49:44;;;;;;;6.63;2.45;;;;;;;;;;5088476;28;20036;-18
2020/12/24 12:52:09;;;;;;;7.90;4.25;;;;;;;;;;5092548;28;20051;-18
2020/12/24 12:54:35;;;;;;;5.72;2.70;;;;;;;;;;5092839;28;20032;-18
2020/12/24 12:57:00;;;;;;;7.60;3.60;;;;;;;;;;5092310;28;20031;-18
2020/12/24 12:59:26;;;;;;;4.93;3.28;;;;;;;;;;5092685;28;20024;-17
2020/12/24 13:01:54;;;;;;;6.57;3.78;;;;;;;;;;5092392;28;20511;-17
2020/12/24 13:04:20;;;;;;;3.85;2.28;;;;;;;;;;5092604;28;20035;-19
2020/12/24 13:06:45;;;;;;;7.63;2.83;;;;;;;;;;5092574;28;20028;-18
2020/12/24 13:09:11;;;;;;;5.40;2.40;;;;;;;;;;5091816;28;20038;-18
2020/12/24 13:11:36;;;;;;;6.28;2.53;;;;;;;;;;5092348;28;20154;-19
2020/12/24 13:14:02;;;;;;;4.93;3.05;;;;;;;;;;5092108;28;20387;-18
2020/12/24 13:16:28;;;;;;;5.78;2.80;;;;;;;;;;5105055;28;20099;-18
2020/12/24 13:18:54;;;;;;;11.45;3.92;;;;;;;;;;5112253;28;20032;-18
2020/12/24 13:21:20;;;;;;;2.40;1.75;;;;;;;;;;5111101;28;20027;-18
2020/12/24 13:23:46;;;;;;;37.15;18.02;;;;;;;;;;5112009;28;20050;-18
2020/12/24 13:26:14;;;;;;;7.78;2.30;;;;;;;;;;5112078;28;20454;-18
2020/12/24 13:28:40;;;;;;;4.65;2.15;;;;;;;;;;5112126;28;20028;-18
2020/12/24 13:31:05;;;;;;;5.40;2.35;;;;;;;;;;5106813;28;20480;-18
2020/12/24 13:33:31;;;;;;;5.38;3.60;;;;;;;;;;5090797;28;20036;-18
2020/12/24 13:35:56;;;;;;;5.00;2.67;;;;;;;;;;5091360;28;20020;-19
2020/12/24 13:38:22;;;;;;;8.68;3.95;;;;;;;;;;5090928;28;20032;-17
2020/12/24 13:40:47;;;;;;;13.70;3.13;;;;;;;;;;5112406;28;20011;-18
2020/12/24 13:43:13;;;;;;;5.15;2.67;;;;;;;;;;5111899;28;20118;-18
2020/12/24 13:45:38;;;;;;;7.38;4.22;;;;;;;;;;5108020;28;20020;-18
2020/12/24 13:48:03;;;;;;;7.47;4.45;;;;;;;;;;5111927;28;20074;-18
2020/12/24 13:50:31;;;;;;;5.78;3.45;;;;;;;;;;5111394;28;20075;-18
2020/12/24 13:52:57;;;;;;;5.20;3.72;;;;;;;;;;5111689;28;20056;-17
2020/12/24 13:55:22;;;;;;;5.25;2.38;;;;;;;;;;5111970;28;20140;-18
2020/12/24 13:57:48;;;;;;;8.80;3.45;;;;;;;;;;5111371;28;20096;-19
2020/12/24 14:00:13;;;;;;;9.95;2.90;;;;;;;;;;5111682;28;20088;-17
2020/12/24 14:02:39;;;;;;;5.93;3.20;;;;;;;;;;5110551;28;20039;-18
2020/12/24 14:05:04;;;;;;;4.82;2.22;;;;;;;;;;5111752;28;20615;-18
2020/12/24 14:07:30;;;;;;;5.32;2.10;;;;;;;;;;5111552;28;20434;-17
2020/12/24 14:09:55;;;;;;;8.15;2.05;;;;;;;;;;5111165;28;20054;-18
2020/12/24 14:12:23;;;;;;;4.93;2.58;;;;;;;;;;5111405;28;20529;-17
2020/12/24 14:14:49;;;;;;;5.93;3.05;;;;;;;;;;5109850;28;20020;-18
2020/12/24 14:17:14;;;;;;;8.38;3.85;;;;;;;;;;5097276;28;20087;-17
2020/12/24 14:19:40;;;;;;;16.23;4.45;;;;;;;;;;5109263;28;20015;-27
2020/12/24 14:22:05;;;;;;;7.53;3.50;;;;;;;;;;5110637;28;20038;-18
2020/12/24 14:24:31;;;;;;;4.88;2.80;;;;;;;;;;5111537;28;20027;-19
2020/12/24 14:26:57;;;;;;;7.53;4.03;;;;;;;;;;5109924;28;20036;-18
2020/12/24 14:29:23;;;;;;;8.43;3.20;;;;;;;;;;5111355;28;20094;-18
2020/12/24 14:31:50;;;;;;;8.73;4.53;;;;;;;;;;5110870;28;20232;-17
2020/12/24 14:34:15;;;;;;;8.20;4.15;;;;;;;;;;5110633;27;20027;-19